createdAt,value
2024-01-05T00:03:01.076Z,96946.84
2024-01-05T00:08:04.208Z,96944.75
2024-01-05T00:13:08.146Z,96944.50
2024-01-05T00:18:11.226Z,96931.38
2024-01-05T00:23:13.980Z,96928.97
2024-01-05T00:28:16.617Z,96924.63
2024-01-05T00:33:19.404Z,96909.22
2024-01-05T00:38:22.070Z,96909.03
2024-01-05T00:43:24.731Z,96916.41
2024-01-05T00:48:27.789Z,96926.16
2024-01-05T00:53:30.565Z,96923.53
2024-01-05T00:58:33.974Z,96917.53
2024-01-05T01:03:36.916Z,96917.53
2024-01-05T01:08:39.652Z,96931.53
2024-01-05T01:13:43.211Z,96926.25
2024-01-05T01:18:45.994Z,96940.16
2024-01-05T01:23:48.670Z,96907.16
2024-01-05T01:28:51.541Z,96917.22
2024-01-05T01:33:54.297Z,96913.41
2024-01-05T01:38:57.029Z,96893.06
2024-01-05T01:44:00.509Z,96884.72
2024-01-05T01:49:05.133Z,96879.88
2024-01-05T01:54:08.312Z,96864.34
2024-01-05T01:59:11.268Z,96844.53
2024-01-05T02:04:16.821Z,96842.19
2024-01-05T02:09:20.108Z,96841.69
2024-01-05T02:14:22.817Z,96840.09
2024-01-05T02:19:26.639Z,96846.25
2024-01-05T02:24:29.802Z,96838.78
2024-01-05T02:29:32.465Z,96826.97
2024-01-05T02:34:35.198Z,96813.56
2024-01-05T02:39:38.160Z,96816.66
2024-01-05T02:44:40.832Z,96824.97
2024-01-05T02:49:43.836Z,96812.59
2024-01-05T02:54:46.687Z,96814.31
2024-01-05T02:59:49.253Z,96808.16
2024-01-05T03:04:53.345Z,96795.53
2024-01-05T03:09:56.089Z,96785.25
2024-01-05T03:14:59.155Z,96800.44
2024-01-05T03:20:02.153Z,96806.09
2024-01-05T03:25:05.252Z,96789.94
2024-01-05T03:30:08.747Z,96776.06
2024-01-05T03:35:11.513Z,96766.19
2024-01-05T03:40:14.189Z,96763.31
2024-01-05T03:45:17.017Z,96751.41
2024-01-05T03:50:20.567Z,96750.78
2024-01-05T03:55:23.211Z,96750.22
2024-01-05T04:00:25.889Z,96763.78
2024-01-05T04:05:28.610Z,96752.28
2024-01-05T04:10:31.357Z,96747.53
2024-01-05T04:15:37.680Z,96740.50
2024-01-05T04:20:40.300Z,96739.75
2024-01-05T04:25:42.981Z,96734.34
2024-01-05T04:30:45.631Z,96728.81
2024-01-05T04:35:48.662Z,96712.63
2024-01-05T04:40:51.317Z,96721.66
2024-01-05T04:45:54.186Z,96720.91
2024-01-05T04:50:56.871Z,96721.78
2024-01-05T04:55:59.530Z,96718.13
2024-01-05T05:01:02.299Z,96707.63
2024-01-05T05:06:05.162Z,96722.03
2024-01-05T05:11:07.854Z,96716.59
2024-01-05T05:16:10.538Z,96712.69
2024-01-05T05:21:13.188Z,96710.22
2024-01-05T05:26:15.815Z,96704.03
2024-01-05T05:31:18.659Z,96706.31
2024-01-05T05:36:21.401Z,96696.47
2024-01-05T05:41:24.117Z,96705.47
2024-01-05T05:46:26.798Z,96705.78
2024-01-05T05:51:30.293Z,96698.69
2024-01-05T05:56:33.094Z,96709.31
2024-01-05T06:01:35.822Z,96702.31
2024-01-05T06:06:38.657Z,96715.75
2024-01-05T06:11:41.654Z,96712.69
2024-01-05T06:16:44.818Z,96699.09
2024-01-05T06:21:47.871Z,96704.28
2024-01-05T06:26:50.656Z,96712.50
2024-01-05T06:31:53.346Z,96717.56
2024-01-05T06:36:55.985Z,96720.28
2024-01-05T06:41:58.672Z,96720.41
2024-01-05T06:47:01.257Z,96719.75
2024-01-05T06:52:03.953Z,96711.09
2024-01-05T06:57:08.629Z,96707.75
2024-01-05T07:02:12.299Z,96726.00
2024-01-05T07:07:16.996Z,96728.06
2024-01-05T07:12:20.780Z,96726.66
2024-01-05T07:17:23.619Z,96721.16
2024-01-05T07:22:26.464Z,96716.72
2024-01-05T07:27:29.094Z,96712.94
2024-01-05T07:32:31.716Z,96707.19
2024-01-05T07:37:34.687Z,96714.56
2024-01-05T07:42:37.269Z,96720.41
2024-01-05T07:47:40.143Z,96718.63
2024-01-05T07:52:42.985Z,96727.53
2024-01-05T07:57:48.628Z,96722.19
2024-01-05T08:02:52.271Z,96733.25
2024-01-05T08:07:55.039Z,96734.97
2024-01-05T08:12:57.847Z,96724.47
2024-01-05T08:18:00.957Z,96714.25
2024-01-05T08:23:03.903Z,96712.88
2024-01-05T08:28:06.527Z,96706.19
2024-01-05T08:33:09.424Z,96710.97
2024-01-05T08:38:12.228Z,96704.03
2024-01-05T08:43:14.915Z,96706.50
2024-01-05T08:48:17.893Z,96707.72
2024-01-05T08:53:22.482Z,96708.97
2024-01-05T08:58:25.162Z,96699.94
2024-01-05T09:03:29.065Z,96706.13
2024-01-05T09:08:32.100Z,96710.69
2024-01-05T09:13:37.601Z,96726.75
2024-01-05T09:18:41.835Z,96725.63
2024-01-05T09:23:44.829Z,96725.09
2024-01-05T09:28:47.548Z,96733.41
2024-01-05T09:33:51.510Z,96738.09
2024-01-05T09:38:54.414Z,96745.88
2024-01-05T09:43:58.198Z,96752.69
2024-01-05T09:49:04.724Z,96746.72
2024-01-05T09:54:08.132Z,96741.06
2024-01-05T09:59:12.313Z,96728.84
2024-01-05T10:04:15.170Z,96726.91
2024-01-05T10:09:17.889Z,96727.31
2024-01-05T10:14:27.590Z,96739.19
2024-01-05T10:19:30.510Z,96745.47
2024-01-05T10:24:33.351Z,96741.91
2024-01-05T10:29:37.936Z,96752.19
2024-01-05T10:34:48.592Z,96736.94
2024-01-05T10:39:53.946Z,96743.84
2024-01-05T10:44:58.937Z,96729.78
2024-01-05T10:50:02.963Z,96729.72
2024-01-05T10:55:07.379Z,96724.28
2024-01-05T11:00:10.897Z,96708.50
2024-01-05T11:05:15.752Z,96709.00
2024-01-05T11:10:47.313Z,96701.31
2024-01-05T11:16:26.585Z,96694.06
2024-01-05T11:21:52.129Z,96696.94
2024-01-05T11:26:56.813Z,96706.16
2024-01-05T11:31:59.534Z,96707.69
2024-01-05T11:37:03.843Z,96702.06
2024-01-05T11:42:06.627Z,96692.84
2024-01-05T11:47:09.423Z,96681.38
2024-01-05T11:52:12.155Z,96677.13
2024-01-05T11:57:15.288Z,96674.88
2024-01-05T12:02:21.000Z,96676.84
2024-01-05T12:07:24.773Z,96687.09
2024-01-05T12:12:27.440Z,96686.16
2024-01-05T12:17:30.219Z,96679.38
2024-01-05T12:22:33.099Z,96676.41
2024-01-05T12:27:40.217Z,96673.22
2024-01-05T12:32:45.199Z,96668.03
2024-01-05T12:37:55.116Z,96666.41
2024-01-05T12:42:57.918Z,96660.72
2024-01-05T12:48:11.831Z,96649.94
2024-01-05T12:53:22.297Z,96630.03
2024-01-05T12:58:25.138Z,96621.56
2024-01-05T13:03:28.780Z,96609.66
2024-01-05T13:08:36.205Z,96621.00
2024-01-05T13:13:39.088Z,96619.41
2024-01-05T13:18:42.023Z,96625.56
2024-01-05T13:23:45.419Z,96627.34
2024-01-05T13:28:48.291Z,96621.19
2024-01-05T13:33:51.180Z,96633.16
2024-01-05T13:38:53.918Z,96643.81
2024-01-05T13:43:56.578Z,96650.19
2024-01-05T13:48:59.311Z,96649.88
2024-01-05T13:54:02.186Z,96656.34
2024-01-05T13:59:04.961Z,96661.16
2024-01-05T14:04:07.806Z,96661.63
2024-01-05T14:09:10.689Z,96663.09
2024-01-05T14:14:13.532Z,96661.34
2024-01-05T14:19:16.449Z,96673.50
2024-01-05T14:24:19.312Z,96683.91
2024-01-05T14:29:25.963Z,96683.28
2024-01-05T14:34:29.395Z,96684.22
2024-01-05T14:39:32.299Z,96687.50
2024-01-05T14:44:36.657Z,96697.44
2024-01-05T14:49:39.709Z,96689.56
2024-01-05T14:54:42.495Z,96691.38
2024-01-05T14:59:45.235Z,96699.81
2024-01-05T15:04:47.890Z,96699.53
2024-01-05T15:09:51.100Z,96704.59
2024-01-05T15:14:53.889Z,96702.06
2024-01-05T15:19:57.180Z,96701.09
2024-01-05T15:24:59.904Z,96701.19
2024-01-05T15:30:02.766Z,96703.53
2024-01-05T15:35:06.668Z,96691.63
2024-01-05T15:40:09.768Z,96690.56
2024-01-05T15:45:15.684Z,96686.63
2024-01-05T15:50:18.413Z,96692.38
2024-01-05T15:55:23.567Z,96693.81
2024-01-05T16:00:26.351Z,96693.22
2024-01-05T16:05:31.867Z,96693.72
2024-01-05T16:10:34.496Z,96688.81
2024-01-05T16:15:37.300Z,96692.50
2024-01-05T16:20:42.592Z,96696.72
2024-01-05T16:25:45.257Z,96698.72
2024-01-05T16:30:49.236Z,96689.59
2024-01-05T16:35:51.948Z,96696.19
2024-01-05T16:40:55.200Z,96705.66
2024-01-05T16:45:58.189Z,96700.25
2024-01-05T16:51:01.012Z,96680.78
2024-01-05T16:56:03.878Z,96686.66
2024-01-05T17:01:08.346Z,96689.72
2024-01-05T17:06:19.474Z,96700.34
2024-01-05T17:11:26.951Z,96696.09
2024-01-05T17:16:29.880Z,96701.44
2024-01-05T17:21:32.567Z,96712.91
2024-01-05T17:26:41.922Z,96710.78
2024-01-05T17:31:44.707Z,96720.38
2024-01-05T17:36:47.557Z,96726.28
2024-01-05T17:41:50.563Z,96720.19
2024-01-05T17:46:53.293Z,96719.00
2024-01-05T17:51:56.077Z,96712.88
2024-01-05T17:57:05.621Z,96724.13
2024-01-05T18:02:08.701Z,96735.34
2024-01-05T18:07:11.594Z,96742.19
2024-01-05T18:12:14.483Z,96739.75
2024-01-05T18:17:17.211Z,96743.25
2024-01-05T18:22:21.358Z,96739.66
2024-01-05T18:27:25.347Z,96733.72
2024-01-05T18:32:28.294Z,96735.84
2024-01-05T18:37:31.188Z,96727.84
2024-01-05T18:42:34.732Z,96732.31
2024-01-05T18:47:37.438Z,96733.88
2024-01-05T18:52:40.322Z,96730.50
2024-01-05T18:57:43.112Z,96733.69
2024-01-05T19:02:45.807Z,96750.03
2024-01-05T19:07:48.472Z,96752.03
2024-01-05T19:12:51.197Z,96753.28
2024-01-05T19:17:54.264Z,96763.94
2024-01-05T19:22:58.084Z,96761.16
2024-01-05T19:28:00.743Z,96767.72
2024-01-05T19:33:03.732Z,96775.16
2024-01-05T19:38:06.456Z,96776.34
2024-01-05T19:43:09.048Z,96786.81
2024-01-05T19:48:11.984Z,96786.31
2024-01-05T19:53:14.868Z,96786.25
2024-01-05T19:58:17.499Z,96793.06
2024-01-05T20:03:20.339Z,96795.81
2024-01-05T20:08:23.170Z,96797.13
2024-01-05T20:13:26.063Z,96804.59
2024-01-05T20:18:28.904Z,96807.94
2024-01-05T20:23:31.668Z,96798.50
2024-01-05T20:28:34.407Z,96795.66
2024-01-05T20:33:37.264Z,96796.59
2024-01-05T20:38:40.109Z,96795.16
2024-01-05T20:43:42.936Z,96783.91
2024-01-05T20:48:45.824Z,96788.53
2024-01-05T20:53:48.755Z,96799.09
2024-01-05T20:58:51.463Z,96795.53
2024-01-05T21:03:54.146Z,96802.47
2024-01-05T21:08:56.917Z,96802.31
2024-01-05T21:13:59.522Z,96799.09
2024-01-05T21:19:02.231Z,96797.19
2024-01-05T21:24:05.156Z,96804.78
2024-01-05T21:29:07.846Z,96808.78
2024-01-05T21:34:10.616Z,96802.06
2024-01-05T21:39:18.167Z,96804.34
2024-01-05T21:44:22.779Z,96814.34
2024-01-05T21:49:26.164Z,96808.31
2024-01-05T21:54:29.065Z,96802.91
2024-01-05T21:59:34.767Z,96813.59
2024-01-05T22:04:38.390Z,96813.97
2024-01-05T22:09:41.301Z,96811.13
2024-01-05T22:14:43.915Z,96810.31
2024-01-05T22:19:46.677Z,96799.75
2024-01-05T22:24:49.462Z,96807.00
2024-01-05T22:29:52.121Z,96814.09
2024-01-05T22:34:54.864Z,96808.56
2024-01-05T22:39:58.257Z,96814.44
2024-01-05T22:45:01.098Z,96812.50
2024-01-05T22:50:04.020Z,96809.97
2024-01-05T22:55:07.169Z,96807.91
2024-01-05T23:00:11.624Z,96808.00
2024-01-05T23:05:14.488Z,96816.00
2024-01-05T23:10:17.123Z,96808.03
2024-01-05T23:15:19.861Z,96807.66
2024-01-05T23:20:22.502Z,96808.31
2024-01-05T23:25:25.129Z,96805.69
2024-01-05T23:30:27.915Z,96799.09
2024-01-05T23:35:30.583Z,96795.63
2024-01-05T23:40:33.268Z,96799.84
2024-01-05T23:45:35.970Z,96808.59
2024-01-05T23:50:38.718Z,96811.41
2024-01-05T23:55:41.561Z,96814.22
